Time;durP1;ratioP1;P1;durP2;ratioP2;P2;SDS_P1;SDS_P2;PMS_P1;PMS_P2;Temp;Humidity;BMP_temperature;BMP_pressure;BME280_temperature;BME280_humidity;BME280_pressure;Samples;Min_cycle;Max_cycle;Signal;HPM_P1;HPM_P2
2022/07/22 00:00:10;;;;;;;10.65;7.45;;;;;;;;;;341308;29;824;-81
2022/07/22 00:00:20;;;;;;;10.25;7.40;;;;;;;;;;341165;29;978;-81
2022/07/22 00:00:31;;;;;;;9.20;7.27;;;;;;;;;;341345;29;805;-81
2022/07/22 00:00:41;;;;;;;10.85;7.10;;;;;;;;;;340116;29;868;-81
2022/07/22 00:00:52;;;;;;;10.87;6.70;;;;;;;;;;340218;29;856;-93
2022/07/22 00:01:02;;;;;;;10.75;6.93;;;;;;;;;;338687;29;805;-81
2022/07/22 00:01:13;;;;;;;8.50;7.07;;;;;;;;;;338586;29;801;-82
2022/07/22 00:01:23;;;;;;;9.38;7.13;;;;;;;;;;338805;29;900;-81
2022/07/22 00:01:34;;;;;;;11.23;7.47;;;;;;;;;;338771;29;891;-93
2022/07/22 00:01:44;;;;;;;11.50;7.45;;;;;;;;;;338816;29;899;-81
2022/07/22 00:01:56;;;;;;;10.97;7.87;;;;;;;;;;339958;29;1276;-81
2022/07/22 00:02:06;;;;;;;8.60;7.30;;;;;;;;;;340904;29;1481;-85
2022/07/22 00:02:17;;;;;;;9.10;7.47;;;;;;;;;;342295;28;841;-81
2022/07/22 00:02:27;;;;;;;10.40;7.57;;;;;;;;;;342707;28;809;-81
2022/07/22 00:02:38;;;;;;;11.55;8.00;;;;;;;;;;341374;29;907;-82
2022/07/22 00:02:49;;;;;;;11.23;7.85;;;;;;;;;;341517;29;930;-95
2022/07/22 00:02:59;;;;;;;10.13;7.50;;;;;;;;;;342733;28;872;-83
2022/07/22 00:03:09;;;;;;;9.43;6.97;;;;;;;;;;341340;29;903;-93
2022/07/22 00:03:20;;;;;;;9.70;7.00;;;;;;;;;;343729;28;1172;-81
2022/07/22 00:03:30;;;;;;;9.20;7.00;;;;;;;;;;342768;28;848;-81
2022/07/22 00:03:41;;;;;;;9.50;7.33;;;;;;;;;;344127;28;856;-82
2022/07/22 00:03:51;;;;;;;9.15;7.53;;;;;;;;;;341336;28;1507;-88
2022/07/22 00:04:02;;;;;;;11.17;8.20;;;;;;;;;;341199;29;1412;-82
2022/07/22 00:04:12;;;;;;;11.35;8.07;;;;;;;;;;340050;29;895;-93
2022/07/22 00:04:23;;;;;;;12.43;8.13;;;;;;;;;;341536;28;836;-92
2022/07/22 00:04:33;;;;;;;11.52;8.15;;;;;;;;;;338915;29;1273;-84
2022/07/22 00:04:44;;;;;;;12.73;8.50;;;;;;;;;;342912;28;1189;-81
2022/07/22 00:04:54;;;;;;;11.80;8.05;;;;;;;;;;341543;29;1314;-92
2022/07/22 00:05:10;;;;;;;12.13;8.00;;;;;;;;;;342601;28;1349;-92
2022/07/22 00:05:21;;;;;;;11.40;7.80;;;;;;;;;;341305;29;1355;-95
2022/07/22 00:05:32;;;;;;;10.63;7.80;;;;;;;;;;338761;29;1455;-81
2022/07/22 00:05:42;;;;;;;9.63;7.95;;;;;;;;;;340375;29;813;-81
2022/07/22 00:05:53;;;;;;;9.53;7.90;;;;;;;;;;343063;28;804;-82
2022/07/22 00:06:04;;;;;;;10.40;8.05;;;;;;;;;;342761;28;1196;-94
2022/07/22 00:06:15;;;;;;;11.15;7.90;;;;;;;;;;341444;29;946;-82
2022/07/22 00:06:25;;;;;;;11.52;8.18;;;;;;;;;;341674;29;899;-81
2022/07/22 00:06:36;;;;;;;12.30;8.20;;;;;;;;;;338850;29;840;-82
2022/07/22 00:06:46;;;;;;;13.47;8.37;;;;;;;;;;341722;29;894;-94
2022/07/22 00:06:57;;;;;;;13.02;8.30;;;;;;;;;;340260;29;888;-90
2022/07/22 00:07:07;;;;;;;12.33;7.77;;;;;;;;;;340137;29;1154;-87
2022/07/22 00:07:18;;;;;;;11.55;7.50;;;;;;;;;;340034;29;1265;-81
2022/07/22 00:07:28;;;;;;;11.13;7.47;;;;;;;;;;342855;28;1326;-81
2022/07/22 00:07:39;;;;;;;10.75;7.85;;;;;;;;;;342761;28;1318;-81
2022/07/22 00:07:49;;;;;;;9.90;7.90;;;;;;;;;;341608;29;1290;-93
2022/07/22 00:07:59;;;;;;;9.50;7.90;;;;;;;;;;341566;29;1189;-81
2022/07/22 00:08:10;;;;;;;9.67;7.60;;;;;;;;;;341525;29;1472;-93
2022/07/22 00:08:20;;;;;;;10.57;8.07;;;;;;;;;;344111;28;890;-81
2022/07/22 00:08:31;;;;;;;10.63;8.03;;;;;;;;;;341706;29;904;-85
2022/07/22 00:08:42;;;;;;;10.48;8.13;;;;;;;;;;340320;29;804;-81
2022/07/22 00:08:52;;;;;;;10.00;7.87;;;;;;;;;;340375;29;979;-95
2022/07/22 00:09:03;;;;;;;9.55;7.70;;;;;;;;;;338808;29;857;-82
2022/07/22 00:09:13;;;;;;;8.88;7.45;;;;;;;;;;339034;29;817;-91
2022/07/22 00:09:24;;;;;;;9.63;7.30;;;;;;;;;;338832;29;821;-81
2022/07/22 00:09:34;;;;;;;10.95;7.75;;;;;;;;;;338584;29;1026;-81
2022/07/22 00:09:45;;;;;;;11.17;7.93;;;;;;;;;;340390;29;876;-81
2022/07/22 00:09:55;;;;;;;10.35;7.53;;;;;;;;;;338949;29;924;-82
2022/07/22 00:10:07;;;;;;;9.87;6.97;;;;;;;;;;338940;29;904;-91
2022/07/22 00:10:18;;;;;;;10.07;7.15;;;;;;;;;;340160;29;917;-81
2022/07/22 00:10:28;;;;;;;9.80;7.27;;;;;;;;;;341592;29;1413;-81
2022/07/22 00:10:38;;;;;;;9.30;7.15;;;;;;;;;;341634;29;829;-82
2022/07/22 00:10:49;;;;;;;10.80;7.10;;;;;;;;;;341679;29;907;-81
2022/07/22 00:10:59;;;;;;;11.68;7.65;;;;;;;;;;341536;29;1286;-82
2022/07/22 00:11:10;;;;;;;11.60;7.97;;;;;;;;;;340078;29;1299;-81
2022/07/22 00:11:21;;;;;;;9.23;7.65;;;;;;;;;;341433;29;1011;-92
2022/07/22 00:11:31;;;;;;;9.05;7.53;;;;;;;;;;338899;29;1227;-88
2022/07/22 00:11:42;;;;;;;9.57;7.43;;;;;;;;;;337575;29;1287;-88
2022/07/22 00:11:52;;;;;;;9.05;7.57;;;;;;;;;;340325;29;1589;-95
2022/07/22 00:12:03;;;;;;;9.43;7.43;;;;;;;;;;341424;29;1211;-81
2022/07/22 00:12:14;;;;;;;10.07;7.63;;;;;;;;;;343070;28;840;-81
2022/07/22 00:12:24;;;;;;;10.33;7.57;;;;;;;;;;341424;29;1478;-83
2022/07/22 00:12:34;;;;;;;10.18;7.47;;;;;;;;;;341436;29;1972;-88
2022/07/22 00:12:45;;;;;;;9.90;7.47;;;;;;;;;;340323;29;848;-81
2022/07/22 00:12:55;;;;;;;12.13;7.88;;;;;;;;;;342886;28;1550;-83
2022/07/22 00:13:06;;;;;;;11.40;7.97;;;;;;;;;;342923;28;959;-81
2022/07/22 00:13:17;;;;;;;11.40;7.70;;;;;;;;;;344046;28;975;-82
2022/07/22 00:13:27;;;;;;;11.23;7.57;;;;;;;;;;341661;29;1346;-94
2022/07/22 00:13:38;;;;;;;11.50;7.40;;;;;;;;;;338851;29;1207;-82
2022/07/22 00:13:48;;;;;;;11.27;7.33;;;;;;;;;;341471;29;1170;-82
2022/07/22 00:13:59;;;;;;;9.18;6.78;;;;;;;;;;340137;29;1324;-81
2022/07/22 00:14:09;;;;;;;9.80;7.07;;;;;;;;;;340226;29;1552;-81
2022/07/22 00:14:20;;;;;;;12.63;7.83;;;;;;;;;;341408;29;966;-81
2022/07/22 00:14:30;;;;;;;14.60;8.00;;;;;;;;;;341757;29;927;-93
2022/07/22 00:14:41;;;;;;;13.00;7.47;;;;;;;;;;338935;29;1301;-81
2022/07/22 00:14:52;;;;;;;10.43;7.43;;;;;;;;;;338956;29;1265;-94
2022/07/22 00:15:04;;;;;;;10.70;7.60;;;;;;;;;;338913;29;805;-81
2022/07/22 00:15:14;;;;;;;11.57;7.50;;;;;;;;;;340215;29;1274;-81
2022/07/22 00:15:25;;;;;;;11.68;7.18;;;;;;;;;;341242;29;1379;-81
2022/07/22 00:15:35;;;;;;;10.63;7.30;;;;;;;;;;340325;29;941;-81
2022/07/22 00:15:48;;;;;;;9.90;7.28;;;;;;;;;;339048;29;841;-81
2022/07/22 00:15:59;;;;;;;9.75;7.63;;;;;;;;;;338988;29;879;-92
2022/07/22 00:16:09;;;;;;;11.77;8.33;;;;;;;;;;340298;29;939;-84
2022/07/22 00:16:20;;;;;;;13.07;8.55;;;;;;;;;;340096;29;947;-81
2022/07/22 00:16:30;;;;;;;13.47;8.50;;;;;;;;;;340215;29;1331;-81
2022/07/22 00:16:41;;;;;;;11.38;7.97;;;;;;;;;;338984;29;837;-81
2022/07/22 00:16:51;;;;;;;10.60;7.67;;;;;;;;;;340212;29;812;-88
2022/07/22 00:17:02;;;;;;;9.55;7.55;;;;;;;;;;339811;29;1302;-91
2022/07/22 00:17:12;;;;;;;8.50;7.37;;;;;;;;;;343086;28;808;-95
2022/07/22 00:17:23;;;;;;;8.48;7.57;;;;;;;;;;341450;29;888;-95
2022/07/22 00:17:33;;;;;;;8.77;7.60;;;;;;;;;;341643;29;943;-91
2022/07/22 00:17:44;;;;;;;9.32;8.02;;;;;;;;;;342927;28;1545;-81
2022/07/22 00:17:54;;;;;;;10.37;8.20;;;;;;;;;;340198;29;1445;-82
2022/07/22 00:18:05;;;;;;;10.95;8.32;;;;;;;;;;341488;28;852;-81
2022/07/22 00:18:15;;;;;;;10.70;8.50;;;;;;;;;;341683;29;935;-81
2022/07/22 00:18:26;;;;;;;9.85;8.55;;;;;;;;;;341468;29;587;-95
2022/07/22 00:18:36;;;;;;;12.70;8.50;;;;;;;;;;344289;28;903;-93
2022/07/22 00:18:47;;;;;;;12.95;7.90;;;;;;;;;;342944;28;872;-81
2022/07/22 00:18:57;;;;;;;12.90;7.73;;;;;;;;;;342913;28;804;-94
2022/07/22 00:19:08;;;;;;;9.43;7.50;;;;;;;;;;341668;29;894;-93
2022/07/22 00:19:18;;;;;;;8.53;7.40;;;;;;;;;;341678;29;899;-82
2022/07/22 00:19:28;;;;;;;8.63;7.53;;;;;;;;;;341460;29;864;-82
2022/07/22 00:19:39;;;;;;;9.57;7.53;;;;;;;;;;341661;29;571;-82
2022/07/22 00:19:49;;;;;;;9.97;7.50;;;;;;;;;;340320;29;844;-81
2022/07/22 00:20:00;;;;;;;10.05;7.13;;;;;;;;;;342890;28;872;-82
2022/07/22 00:20:10;;;;;;;9.53;7.27;;;;;;;;;;344246;28;1226;-81
2022/07/22 00:20:21;;;;;;;10.80;7.50;;;;;;;;;;344059;28;800;-82
2022/07/22 00:20:31;;;;;;;10.63;7.70;;;;;;;;;;341602;29;915;-81
2022/07/22 00:20:42;;;;;;;10.25;7.60;;;;;;;;;;341676;29;900;-81
2022/07/22 00:20:53;;;;;;;9.27;7.55;;;;;;;;;;340125;29;1243;-93
2022/07/22 00:21:04;;;;;;;9.97;7.30;;;;;;;;;;341582;29;927;-93
2022/07/22 00:21:14;;;;;;;11.05;7.47;;;;;;;;;;340255;29;1316;-81
2022/07/22 00:21:24;;;;;;;10.57;7.53;;;;;;;;;;341411;29;820;-81
2022/07/22 00:21:35;;;;;;;10.23;7.53;;;;;;;;;;341480;29;911;-81
2022/07/22 00:21:45;;;;;;;9.83;7.73;;;;;;;;;;341688;29;950;-92
2022/07/22 00:21:56;;;;;;;10.50;7.72;;;;;;;;;;340175;29;963;-82
2022/07/22 00:22:06;;;;;;;9.50;7.57;;;;;;;;;;342945;28;958;-95
2022/07/22 00:22:17;;;;;;;9.77;7.60;;;;;;;;;;341754;29;816;-94
2022/07/22 00:22:27;;;;;;;9.70;7.43;;;;;;;;;;339977;29;1186;-81
2022/07/22 00:22:38;;;;;;;9.82;7.32;;;;;;;;;;341422;29;1295;-81
2022/07/22 00:22:48;;;;;;;9.67;7.13;;;;;;;;;;340182;29;1212;-81
2022/07/22 00:22:59;;;;;;;9.13;7.10;;;;;;;;;;340257;29;891;-82
2022/07/22 00:23:09;;;;;;;9.80;7.40;;;;;;;;;;341515;29;1358;-81
2022/07/22 00:23:20;;;;;;;10.55;7.53;;;;;;;;;;341604;29;1203;-81
2022/07/22 00:23:30;;;;;;;10.50;7.50;;;;;;;;;;341261;28;1265;-81
2022/07/22 00:23:41;;;;;;;9.80;7.30;;;;;;;;;;341613;29;710;-81
2022/07/22 00:23:51;;;;;;;8.93;7.20;;;;;;;;;;340325;29;797;-90
2022/07/22 00:24:02;;;;;;;8.73;7.00;;;;;;;;;;338860;29;899;-92
2022/07/22 00:24:12;;;;;;;8.53;6.77;;;;;;;;;;343022;28;851;-81
2022/07/22 00:24:23;;;;;;;9.38;7.10;;;;;;;;;;342439;28;875;-93
2022/07/22 00:24:34;;;;;;;10.25;7.65;;;;;;;;;;344282;28;856;-93
2022/07/22 00:24:44;;;;;;;10.00;7.80;;;;;;;;;;344364;28;883;-81
2022/07/22 00:24:55;;;;;;;9.93;7.70;;;;;;;;;;344245;28;892;-82
2022/07/22 00:25:06;;;;;;;10.17;7.37;;;;;;;;;;342918;28;932;-82
2022/07/22 00:25:16;;;;;;;10.93;7.35;;;;;;;;;;344363;28;801;-92
2022/07/22 00:25:28;;;;;;;9.73;7.43;;;;;;;;;;344111;28;835;-81
2022/07/22 00:25:39;;;;;;;10.32;7.50;;;;;;;;;;344341;28;915;-94
2022/07/22 00:25:49;;;;;;;10.50;7.27;;;;;;;;;;342994;28;789;-81
2022/07/22 00:25:59;;;;;;;10.63;7.07;;;;;;;;;;342766;28;1505;-82
2022/07/22 00:26:10;;;;;;;9.93;6.90;;;;;;;;;;342963;28;824;-93
2022/07/22 00:26:20;;;;;;;10.43;7.23;;;;;;;;;;342997;28;985;-81
2022/07/22 00:26:31;;;;;;;9.70;7.30;;;;;;;;;;342720;28;824;-93
2022/07/22 00:26:41;;;;;;;9.70;7.60;;;;;;;;;;343009;28;899;-81
2022/07/22 00:26:52;;;;;;;9.75;7.93;;;;;;;;;;342930;28;939;-94
2022/07/22 00:27:03;;;;;;;9.98;7.88;;;;;;;;;;341486;29;1030;-93
2022/07/22 00:27:13;;;;;;;9.27;7.73;;;;;;;;;;340235;29;891;-81
2022/07/22 00:27:24;;;;;;;8.20;7.20;;;;;;;;;;341436;29;797;-82
2022/07/22 00:27:34;;;;;;;8.83;7.27;;;;;;;;;;341542;29;957;-82
2022/07/22 00:27:45;;;;;;;9.32;7.45;;;;;;;;;;340210;29;1229;-81
2022/07/22 00:27:55;;;;;;;11.67;7.63;;;;;;;;;;340298;29;797;-81
2022/07/22 00:28:06;;;;;;;11.50;7.50;;;;;;;;;;340226;29;899;-94
2022/07/22 00:28:16;;;;;;;11.20;7.23;;;;;;;;;;342922;28;848;-81
2022/07/22 00:28:27;;;;;;;9.52;7.28;;;;;;;;;;342779;28;812;-81
2022/07/22 00:28:37;;;;;;;11.53;7.43;;;;;;;;;;341638;29;828;-81
2022/07/22 00:28:48;;;;;;;11.23;7.53;;;;;;;;;;341583;28;899;-81
2022/07/22 00:28:58;;;;;;;10.93;6.90;;;;;;;;;;340331;29;860;-93
2022/07/22 00:29:09;;;;;;;9.15;6.75;;;;;;;;;;340312;29;750;-81
2022/07/22 00:29:19;;;;;;;9.50;6.77;;;;;;;;;;337750;29;891;-81
2022/07/22 00:29:30;;;;;;;9.85;7.22;;;;;;;;;;340069;29;801;-82
2022/07/22 00:29:41;;;;;;;10.03;7.17;;;;;;;;;;341573;29;935;-81
2022/07/22 00:29:52;;;;;;;9.90;7.05;;;;;;;;;;342878;28;847;-94
2022/07/22 00:30:03;;;;;;;10.75;6.90;;;;;;;;;;342692;28;1413;-93
2022/07/22 00:30:14;;;;;;;10.77;7.05;;;;;;;;;;340221;28;982;-91
2022/07/22 00:30:24;;;;;;;11.00;7.23;;;;;;;;;;341420;29;879;-82
2022/07/22 00:30:35;;;;;;;10.27;7.20;;;;;;;;;;342946;28;836;-81
2022/07/22 00:30:45;;;;;;;10.50;7.07;;;;;;;;;;344202;28;812;-87
2022/07/22 00:30:56;;;;;;;11.77;7.03;;;;;;;;;;344312;28;882;-81
2022/07/22 00:31:07;;;;;;;12.60;7.15;;;;;;;;;;344240;28;924;-93
2022/07/22 00:31:17;;;;;;;10.73;7.00;;;;;;;;;;344413;28;927;-94
2022/07/22 00:31:28;;;;;;;9.07;6.93;;;;;;;;;;344138;28;853;-81
2022/07/22 00:31:38;;;;;;;8.27;7.05;;;;;;;;;;342875;28;860;-90
2022/07/22 00:31:49;;;;;;;9.77;7.40;;;;;;;;;;342553;28;911;-81
2022/07/22 00:31:59;;;;;;;10.98;7.47;;;;;;;;;;342980;28;915;-83
2022/07/22 00:32:10;;;;;;;11.17;7.13;;;;;;;;;;342875;28;1156;-82
2022/07/22 00:32:20;;;;;;;9.52;6.75;;;;;;;;;;343006;28;847;-81
2022/07/22 00:32:31;;;;;;;8.87;6.57;;;;;;;;;;342514;28;1910;-81
2022/07/22 00:32:41;;;;;;;8.90;6.65;;;;;;;;;;340294;29;922;-82
2022/07/22 00:32:51;;;;;;;9.20;6.43;;;;;;;;;;340245;29;876;-92
2022/07/22 00:33:03;;;;;;;10.00;6.22;;;;;;;;;;341493;29;891;-90
2022/07/22 00:33:13;;;;;;;8.63;6.35;;;;;;;;;;342970;28;828;-81
2022/07/22 00:33:24;;;;;;;8.50;6.63;;;;;;;;;;341550;29;1315;-81
2022/07/22 00:33:34;;;;;;;8.43;6.68;;;;;;;;;;341264;29;1502;-93
2022/07/22 00:33:45;;;;;;;8.77;6.77;;;;;;;;;;340206;29;853;-82
2022/07/22 00:33:55;;;;;;;10.38;7.47;;;;;;;;;;341610;29;887;-82
2022/07/22 00:34:06;;;;;;;9.77;7.43;;;;;;;;;;342760;28;896;-82
2022/07/22 00:34:16;;;;;;;10.32;6.97;;;;;;;;;;345742;28;902;-82
2022/07/22 00:34:26;;;;;;;12.13;6.77;;;;;;;;;;341337;29;860;-82
2022/07/22 00:34:37;;;;;;;12.82;6.85;;;;;;;;;;342917;28;848;-83
2022/07/22 00:34:47;;;;;;;11.53;6.57;;;;;;;;;;341620;29;813;-81
2022/07/22 00:34:58;;;;;;;8.18;6.35;;;;;;;;;;342921;28;817;-82
2022/07/22 00:35:09;;;;;;;9.17;6.73;;;;;;;;;;340204;29;1186;-81
2022/07/22 00:35:19;;;;;;;9.80;7.00;;;;;;;;;;342998;28;919;-93
2022/07/22 00:35:30;;;;;;;11.33;7.13;;;;;;;;;;343938;28;1275;-83
2022/07/22 00:35:40;;;;;;;10.05;6.75;;;;;;;;;;342942;28;895;-82
2022/07/22 00:35:55;;;;;;;9.53;6.67;;;;;;;;;;342739;28;1300;-89
2022/07/22 00:36:06;;;;;;;9.13;6.80;;;;;;;;;;341476;28;1252;-82
2022/07/22 00:36:16;;;;;;;9.45;6.95;;;;;;;;;;341625;29;860;-81
2022/07/22 00:36:28;;;;;;;10.20;7.10;;;;;;;;;;341367;29;1385;-81
2022/07/22 00:36:41;;;;;;;10.27;7.20;;;;;;;;;;342747;28;1427;-82
2022/07/22 00:36:52;;;;;;;10.88;7.13;;;;;;;;;;344217;28;891;-90
2022/07/22 00:37:04;;;;;;;11.60;7.07;;;;;;;;;;341466;29;1169;-93
2022/07/22 00:37:21;;;;;;;9.85;6.93;;;;;;;;;;342668;28;900;-82
2022/07/22 00:37:32;;;;;;;8.40;6.80;;;;;;;;;;338627;29;890;-87
2022/07/22 00:37:42;;;;;;;8.10;6.97;;;;;;;;;;340293;29;908;-81
2022/07/22 00:37:53;;;;;;;8.20;7.18;;;;;;;;;;341557;28;1258;-94
2022/07/22 00:38:03;;;;;;;8.63;7.33;;;;;;;;;;344106;28;1157;-82
2022/07/22 00:38:14;;;;;;;8.35;7.10;;;;;;;;;;340184;29;1199;-88
2022/07/22 00:38:24;;;;;;;10.03;7.03;;;;;;;;;;341682;29;812;-81
2022/07/22 00:38:35;;;;;;;9.85;6.75;;;;;;;;;;338708;29;664;-81
2022/07/22 00:38:45;;;;;;;10.93;7.20;;;;;;;;;;342864;28;844;-82
2022/07/22 00:38:56;;;;;;;9.05;7.05;;;;;;;;;;342896;28;1187;-95
2022/07/22 00:39:07;;;;;;;8.63;6.90;;;;;;;;;;343996;28;816;-82
2022/07/22 00:39:18;;;;;;;7.72;6.38;;;;;;;;;;342929;28;864;-82
2022/07/22 00:39:29;;;;;;;7.60;6.28;;;;;;;;;;338681;29;1232;-81
2022/07/22 00:39:39;;;;;;;7.68;6.00;;;;;;;;;;340285;29;873;-81
2022/07/22 00:39:50;;;;;;;8.20;5.73;;;;;;;;;;340187;29;809;-93
2022/07/22 00:40:04;;;;;;;7.93;5.30;;;;;;;;;;341657;29;852;-94
2022/07/22 00:40:14;;;;;;;8.75;5.47;;;;;;;;;;342870;28;990;-82
2022/07/22 00:40:25;;;;;;;8.47;5.73;;;;;;;;;;343003;28;833;-81
2022/07/22 00:40:35;;;;;;;9.05;5.88;;;;;;;;;;342657;28;947;-81
2022/07/22 00:40:46;;;;;;;8.87;5.90;;;;;;;;;;341425;29;1149;-81
2022/07/22 00:40:56;;;;;;;8.18;5.78;;;;;;;;;;342952;28;836;-82
2022/07/22 00:41:07;;;;;;;8.47;5.77;;;;;;;;;;342924;28;849;-81
2022/07/22 00:41:17;;;;;;;9.18;5.60;;;;;;;;;;342940;28;800;-84
2022/07/22 00:41:28;;;;;;;9.40;5.13;;;;;;;;;;343017;28;793;-81
2022/07/22 00:41:38;;;;;;;8.52;5.18;;;;;;;;;;341297;28;952;-92
2022/07/22 00:41:49;;;;;;;9.07;5.37;;;;;;;;;;340290;29;860;-94
2022/07/22 00:41:59;;;;;;;10.80;5.80;;;;;;;;;;340361;29;900;-81
2022/07/22 00:42:10;;;;;;;9.83;5.77;;;;;;;;;;341586;29;812;-82
2022/07/22 00:42:21;;;;;;;8.02;5.60;;;;;;;;;;341602;29;912;-81
2022/07/22 00:42:31;;;;;;;7.07;5.60;;;;;;;;;;341422;29;927;-81
2022/07/22 00:42:42;;;;;;;7.90;5.72;;;;;;;;;;341552;28;887;-83
2022/07/22 00:42:52;;;;;;;8.27;5.83;;;;;;;;;;341641;29;954;-94
2022/07/22 00:43:03;;;;;;;8.80;5.68;;;;;;;;;;340272;29;922;-83
2022/07/22 00:43:13;;;;;;;8.27;5.53;;;;;;;;;;341552;29;1489;-93
2022/07/22 00:43:24;;;;;;;8.80;5.65;;;;;;;;;;338991;29;907;-81
2022/07/22 00:43:56;;;;;;;8.43;6.03;;;;;;;;;;339960;29;849;-82
2022/07/22 00:44:07;;;;;;;13.05;6.32;;;;;;;;;;341505;29;1281;-82
2022/07/22 00:44:18;;;;;;;11.93;6.22;;;;;;;;;;344287;28;896;-81
2022/07/22 00:44:28;;;;;;;10.67;6.03;;;;;;;;;;345678;28;868;-93
2022/07/22 00:44:39;;;;;;;9.60;5.73;;;;;;;;;;342492;28;1265;-81
2022/07/22 00:44:49;;;;;;;8.60;5.63;;;;;;;;;;342944;28;801;-81
2022/07/22 00:45:00;;;;;;;9.43;5.43;;;;;;;;;;341758;29;836;-82
2022/07/22 00:45:11;;;;;;;8.10;5.33;;;;;;;;;;342774;28;1326;-81
2022/07/22 00:45:21;;;;;;;9.70;5.40;;;;;;;;;;340186;29;1279;-93
2022/07/22 00:45:32;;;;;;;8.30;5.37;;;;;;;;;;339987;29;1174;-81
2022/07/22 00:45:42;;;;;;;9.13;5.53;;;;;;;;;;341631;29;805;-81
2022/07/22 00:45:53;;;;;;;7.77;5.43;;;;;;;;;;340247;28;1167;-93
2022/07/22 00:46:03;;;;;;;9.20;5.68;;;;;;;;;;341570;29;793;-81
2022/07/22 00:46:14;;;;;;;8.30;5.70;;;;;;;;;;341681;29;911;-87
2022/07/22 00:46:25;;;;;;;8.77;5.82;;;;;;;;;;341592;29;809;-82
2022/07/22 00:46:36;;;;;;;8.43;5.78;;;;;;;;;;343680;28;844;-82
2022/07/22 00:46:46;;;;;;;8.93;6.35;;;;;;;;;;344240;28;995;-87
2022/07/22 00:46:57;;;;;;;9.33;6.53;;;;;;;;;;344352;28;891;-82
2022/07/22 00:47:07;;;;;;;9.55;6.47;;;;;;;;;;344373;28;824;-95
2022/07/22 00:47:18;;;;;;;9.67;5.90;;;;;;;;;;344324;28;828;-81
2022/07/22 00:47:28;;;;;;;8.77;5.97;;;;;;;;;;344328;28;903;-81
2022/07/22 00:47:39;;;;;;;8.63;5.90;;;;;;;;;;342683;28;860;-93
2022/07/22 00:47:49;;;;;;;8.20;5.95;;;;;;;;;;341540;28;837;-82
2022/07/22 00:48:00;;;;;;;8.47;5.73;;;;;;;;;;341693;29;891;-82
2022/07/22 00:48:10;;;;;;;7.78;5.45;;;;;;;;;;342941;28;864;-82
2022/07/22 00:48:21;;;;;;;7.63;5.20;;;;;;;;;;342967;28;892;-81
2022/07/22 00:48:31;;;;;;;7.45;5.32;;;;;;;;;;340272;29;873;-82
2022/07/22 00:48:41;;;;;;;7.67;5.73;;;;;;;;;;342718;28;1243;-82
2022/07/22 00:48:52;;;;;;;7.80;6.13;;;;;;;;;;340194;29;1510;-94
2022/07/22 00:49:04;;;;;;;7.65;5.97;;;;;;;;;;342721;28;1360;-92
2022/07/22 00:49:14;;;;;;;7.05;5.20;;;;;;;;;;342967;28;982;-85
2022/07/22 00:49:25;;;;;;;8.10;5.07;;;;;;;;;;341590;29;1340;-93
2022/07/22 00:49:35;;;;;;;9.18;5.32;;;;;;;;;;339852;29;1408;-84
2022/07/22 00:49:46;;;;;;;10.50;5.53;;;;;;;;;;342970;28;816;-82
2022/07/22 00:49:56;;;;;;;9.15;5.50;;;;;;;;;;344240;28;1446;-81
2022/07/22 00:50:07;;;;;;;8.53;5.43;;;;;;;;;;341587;29;924;-82
2022/07/22 00:50:19;;;;;;;8.18;5.25;;;;;;;;;;341613;29;899;-93
2022/07/22 00:50:30;;;;;;;8.45;5.30;;;;;;;;;;338957;29;861;-82
2022/07/22 00:50:40;;;;;;;8.18;5.22;;;;;;;;;;341303;29;903;-81
2022/07/22 00:50:53;;;;;;;7.37;5.40;;;;;;;;;;342769;28;1268;-92
2022/07/22 00:51:04;;;;;;;8.00;5.55;;;;;;;;;;342967;28;927;-82
2022/07/22 00:51:14;;;;;;;8.95;5.80;;;;;;;;;;341611;28;1407;-81
2022/07/22 00:51:26;;;;;;;8.90;5.77;;;;;;;;;;341500;29;1286;-82
2022/07/22 00:51:37;;;;;;;9.25;5.82;;;;;;;;;;341191;29;1410;-82
2022/07/22 00:51:48;;;;;;;8.40;5.55;;;;;;;;;;343043;28;836;-94
2022/07/22 00:51:58;;;;;;;8.85;6.18;;;;;;;;;;344216;28;860;-95
2022/07/22 00:52:09;;;;;;;8.00;6.17;;;;;;;;;;342961;28;892;-94
2022/07/22 00:52:19;;;;;;;8.77;6.45;;;;;;;;;;342977;28;906;-81
2022/07/22 00:52:31;;;;;;;8.23;6.17;;;;;;;;;;340120;29;1429;-82
2022/07/22 00:52:41;;;;;;;8.10;6.10;;;;;;;;;;341232;29;834;-88
2022/07/22 00:52:52;;;;;;;8.05;5.93;;;;;;;;;;342937;28;852;-83
2022/07/22 00:53:02;;;;;;;9.00;6.00;;;;;;;;;;342947;28;855;-90
2022/07/22 00:53:13;;;;;;;8.97;6.10;;;;;;;;;;342963;28;832;-81
2022/07/22 00:53:23;;;;;;;9.23;5.97;;;;;;;;;;342971;28;793;-90
2022/07/22 00:53:34;;;;;;;9.10;6.03;;;;;;;;;;342536;28;949;-81
2022/07/22 00:53:45;;;;;;;8.60;6.03;;;;;;;;;;345595;28;880;-82
2022/07/22 00:53:59;;;;;;;8.35;5.80;;;;;;;;;;341133;29;1011;-88
2022/07/22 00:54:09;;;;;;;7.95;5.25;;;;;;;;;;338779;29;931;-81
2022/07/22 00:54:20;;;;;;;7.67;5.27;;;;;;;;;;340229;29;966;-82
2022/07/22 00:54:30;;;;;;;7.53;5.30;;;;;;;;;;341613;29;967;-94
2022/07/22 00:54:41;;;;;;;7.70;5.57;;;;;;;;;;341245;29;1039;-93
2022/07/22 00:54:51;;;;;;;7.80;5.60;;;;;;;;;;339044;29;898;-92
2022/07/22 00:55:03;;;;;;;9.37;5.67;;;;;;;;;;341593;29;813;-81
2022/07/22 00:55:14;;;;;;;9.10;5.55;;;;;;;;;;339024;29;891;-94
2022/07/22 00:55:24;;;;;;;9.77;5.85;;;;;;;;;;339006;29;813;-95
2022/07/22 00:55:35;;;;;;;8.33;6.03;;;;;;;;;;339881;29;838;-81
2022/07/22 00:55:45;;;;;;;8.67;6.60;;;;;;;;;;340262;29;935;-82
2022/07/22 00:55:55;;;;;;;9.30;7.03;;;;;;;;;;340309;29;848;-85
2022/07/22 00:56:06;;;;;;;9.93;7.60;;;;;;;;;;340095;29;860;-83
2022/07/22 00:56:17;;;;;;;9.95;7.65;;;;;;;;;;341651;29;907;-81
2022/07/22 00:56:27;;;;;;;8.32;7.20;;;;;;;;;;342888;28;1192;-94
2022/07/22 00:56:38;;;;;;;9.80;7.20;;;;;;;;;;342343;28;1189;-81
2022/07/22 00:56:48;;;;;;;10.18;7.43;;;;;;;;;;341612;29;950;-81
2022/07/22 00:56:59;;;;;;;10.97;7.93;;;;;;;;;;342975;28;880;-95
2022/07/22 00:57:09;;;;;;;10.05;8.10;;;;;;;;;;342878;28;852;-82
2022/07/22 00:57:20;;;;;;;10.03;8.03;;;;;;;;;;342988;28;899;-81
2022/07/22 00:57:30;;;;;;;10.52;7.95;;;;;;;;;;342788;28;1177;-82
2022/07/22 00:57:41;;;;;;;10.17;7.70;;;;;;;;;;342513;28;868;-81
2022/07/22 00:57:52;;;;;;;10.63;7.95;;;;;;;;;;341525;28;1332;-94
2022/07/22 00:58:02;;;;;;;10.57;7.80;;;;;;;;;;340125;29;1475;-81
2022/07/22 00:58:13;;;;;;;10.77;7.83;;;;;;;;;;341524;29;1512;-94
2022/07/22 00:58:23;;;;;;;9.90;7.88;;;;;;;;;;341560;29;1276;-82
2022/07/22 00:58:38;;;;;;;10.43;8.00;;;;;;;;;;341106;29;884;-81
2022/07/22 00:58:50;;;;;;;10.93;7.88;;;;;;;;;;342906;28;853;-81
2022/07/22 00:59:02;;;;;;;11.05;7.82;;;;;;;;;;340304;29;1526;-94
2022/07/22 00:59:13;;;;;;;9.48;8.02;;;;;;;;;;340268;29;1520;-81
2022/07/22 00:59:23;;;;;;;10.77;8.40;;;;;;;;;;340295;29;832;-82
2022/07/22 00:59:34;;;;;;;11.10;8.60;;;;;;;;;;338877;29;929;-94
2022/07/22 00:59:44;;;;;;;11.10;8.85;;;;;;;;;;341213;29;875;-94
2022/07/22 00:59:55;;;;;;;10.67;8.47;;;;;;;;;;342808;28;1157;-82
2022/07/22 01:00:10;;;;;;;10.93;8.18;;;;;;;;;;342874;28;939;-82
2022/07/22 01:00:21;;;;;;;11.43;8.10;;;;;;;;;;342932;28;927;-94
2022/07/22 01:00:31;;;;;;;12.38;8.02;;;;;;;;;;342848;28;965;-84
2022/07/22 01:00:41;;;;;;;12.93;8.10;;;;;;;;;;343778;28;1318;-89
2022/07/22 01:00:52;;;;;;;12.50;7.97;;;;;;;;;;344317;28;859;-95
2022/07/22 01:01:03;;;;;;;11.10;8.25;;;;;;;;;;344213;28;886;-88
2022/07/22 01:01:21;;;;;;;11.50;8.48;;;;;;;;;;344074;28;1232;-86
2022/07/22 01:01:36;;;;;;;10.85;8.10;;;;;;;;;;342674;28;971;-96
2022/07/22 01:01:46;;;;;;;9.93;8.15;;;;;;;;;;341418;29;927;-81
2022/07/22 01:01:57;;;;;;;10.10;8.30;;;;;;;;;;341551;29;1375;-95
2022/07/22 01:02:07;;;;;;;9.88;8.30;;;;;;;;;;341531;28;883;-88
2022/07/22 01:02:18;;;;;;;9.77;8.13;;;;;;;;;;344205;28;1224;-81
2022/07/22 01:02:28;;;;;;;10.32;8.13;;;;;;;;;;341526;28;880;-83
2022/07/22 01:02:39;;;;;;;10.70;8.20;;;;;;;;;;341215;29;1542;-82
2022/07/22 01:02:49;;;;;;;10.33;8.27;;;;;;;;;;341487;29;1329;-82
2022/07/22 01:03:01;;;;;;;11.52;8.70;;;;;;;;;;340283;29;1208;-83
2022/07/22 01:03:11;;;;;;;12.10;9.20;;;;;;;;;;340249;29;837;-82
2022/07/22 01:03:21;;;;;;;11.02;9.13;;;;;;;;;;342833;28;888;-82
2022/07/22 01:03:32;;;;;;;9.80;8.70;;;;;;;;;;341404;29;1168;-82
2022/07/22 01:03:47;;;;;;;10.43;8.68;;;;;;;;;;342603;28;914;-81
2022/07/22 01:03:57;;;;;;;10.85;8.80;;;;;;;;;;340369;29;892;-82
2022/07/22 01:04:08;;;;;;;10.93;8.70;;;;;;;;;;342913;28;816;-82
2022/07/22 01:04:18;;;;;;;12.07;9.15;;;;;;;;;;341572;29;1346;-94
2022/07/22 01:04:29;;;;;;;11.73;8.90;;;;;;;;;;344165;28;1371;-84
2022/07/22 01:04:39;;;;;;;11.07;8.63;;;;;;;;;;343896;28;1661;-81
2022/07/22 01:04:50;;;;;;;11.57;8.33;;;;;;;;;;342816;28;1319;-81
2022/07/22 01:05:00;;;;;;;12.32;8.43;;;;;;;;;;342930;28;907;-81
2022/07/22 01:05:11;;;;;;;13.13;8.30;;;;;;;;;;340307;29;805;-81
2022/07/22 01:05:21;;;;;;;11.53;8.13;;;;;;;;;;340336;29;856;-94
2022/07/22 01:05:32;;;;;;;10.75;8.18;;;;;;;;;;340209;29;899;-82
2022/07/22 01:05:42;;;;;;;10.23;8.37;;;;;;;;;;338571;29;1224;-82
2022/07/22 01:05:53;;;;;;;10.23;8.40;;;;;;;;;;340276;29;872;-86
2022/07/22 01:06:04;;;;;;;11.23;8.35;;;;;;;;;;341556;29;868;-82
2022/07/22 01:06:14;;;;;;;11.27;8.33;;;;;;;;;;341638;29;852;-81
2022/07/22 01:06:24;;;;;;;10.70;8.23;;;;;;;;;;342947;28;964;-82
2022/07/22 01:06:35;;;;;;;9.43;8.13;;;;;;;;;;342753;28;895;-82
2022/07/22 01:06:45;;;;;;;9.65;8.40;;;;;;;;;;344052;28;954;-81
2022/07/22 01:06:56;;;;;;;10.70;8.40;;;;;;;;;;342825;28;1419;-92
2022/07/22 01:07:06;;;;;;;11.50;8.40;;;;;;;;;;341533;29;832;-95